createdAt,value
2018-03-19T00:00:42.794Z,43.10
2018-03-19T00:03:11.253Z,31.53
2018-03-19T00:05:39.318Z,45.57
2018-03-19T00:08:07.434Z,37.53
2018-03-19T00:10:35.601Z,49.40
2018-03-19T00:13:03.784Z,32.40
2018-03-19T00:15:31.845Z,40.07
2018-03-19T00:17:59.935Z,29.57
2018-03-19T00:20:28.015Z,31.37
2018-03-19T00:22:56.100Z,39.77
2018-03-19T00:25:24.573Z,35.17
2018-03-19T00:27:52.688Z,46.93
2018-03-19T00:30:20.733Z,52.53
2018-03-19T00:32:48.910Z,35.20
2018-03-19T00:35:16.978Z,42.93
2018-03-19T00:37:45.128Z,38.33
2018-03-19T00:40:13.177Z,43.30
2018-03-19T00:42:42.038Z,38.30
2018-03-19T00:45:10.106Z,26.00
2018-03-19T00:47:38.290Z,40.93
2018-03-19T00:50:06.370Z,34.67
2018-03-19T00:52:34.549Z,40.27
2018-03-19T00:55:02.623Z,34.07
2018-03-19T00:57:31.022Z,31.65
2018-03-19T00:59:59.075Z,29.48
2018-03-19T01:02:27.146Z,43.33
2018-03-19T01:04:55.209Z,29.70
2018-03-19T01:07:23.306Z,41.67
2018-03-19T01:09:52.318Z,35.42
2018-03-19T01:12:20.482Z,43.17
2018-03-19T01:14:48.568Z,38.37
2018-03-19T01:17:16.738Z,37.33
2018-03-19T01:19:44.801Z,30.97
2018-03-19T01:22:12.882Z,43.67
2018-03-19T01:24:40.947Z,29.43
2018-03-19T01:27:09.050Z,38.77
2018-03-19T01:29:37.118Z,31.00
2018-03-19T01:32:05.222Z,31.90
2018-03-19T01:34:33.291Z,41.17
2018-03-19T01:37:01.378Z,37.20
2018-03-19T01:39:29.531Z,36.65
2018-03-19T01:41:57.702Z,35.47
2018-03-19T01:44:25.762Z,37.10
2018-03-19T01:46:53.870Z,38.83
2018-03-19T01:49:21.944Z,32.70
2018-03-19T01:51:50.216Z,34.90
2018-03-19T01:54:18.284Z,37.57
2018-03-19T01:56:46.350Z,33.43
2018-03-19T01:59:14.440Z,32.53
2018-03-19T02:01:42.522Z,41.95
2018-03-19T02:04:10.698Z,33.30
2018-03-19T02:06:38.767Z,34.83
2018-03-19T02:09:06.835Z,40.13
2018-03-19T02:11:34.908Z,32.97
2018-03-19T02:14:02.993Z,36.83
2018-03-19T02:16:31.066Z,28.33
2018-03-19T02:18:59.161Z,30.60
2018-03-19T02:21:27.313Z,35.40
2018-03-19T02:23:55.938Z,31.92
2018-03-19T02:26:24.106Z,32.83
2018-03-19T02:28:52.397Z,40.07
2018-03-19T02:31:21.234Z,44.03
2018-03-19T02:33:49.302Z,36.33
2018-03-19T02:36:18.141Z,34.03
2018-03-19T02:38:46.216Z,31.43
2018-03-19T02:41:14.274Z,28.55
2018-03-19T02:43:42.390Z,31.93
2018-03-19T02:46:10.548Z,26.83
2018-03-19T02:48:38.734Z,32.43
2018-03-19T02:51:06.802Z,28.50
2018-03-19T02:53:35.092Z,27.27
2018-03-19T02:56:03.160Z,26.40
2018-03-19T02:58:31.235Z,35.65
2018-03-19T03:00:59.321Z,33.00
2018-03-19T03:03:27.395Z,25.52
2018-03-19T03:05:57.217Z,42.44
2018-03-19T03:08:26.413Z,35.00
2018-03-19T03:10:54.474Z,26.93
2018-03-19T03:13:22.547Z,34.42
2018-03-19T03:15:50.642Z,33.30
2018-03-19T03:18:18.827Z,26.67
2018-03-19T03:20:46.896Z,24.47
2018-03-19T03:23:14.981Z,16.27
2018-03-19T03:25:43.055Z,23.80
2018-03-19T03:28:11.129Z,30.97
2018-03-19T03:30:39.198Z,22.20
2018-03-19T03:33:07.378Z,33.50
2018-03-19T03:35:35.449Z,29.43
2018-03-19T03:38:03.522Z,29.47
2018-03-19T03:40:31.585Z,37.20
2018-03-19T03:42:59.691Z,25.70
2018-03-19T03:45:27.866Z,23.23
2018-03-19T03:47:57.076Z,26.23
2018-03-19T03:50:25.166Z,28.03
2018-03-19T03:52:53.274Z,34.93
2018-03-19T03:55:22.167Z,23.47
2018-03-19T03:57:50.250Z,29.17
2018-03-19T04:00:18.313Z,29.57
2018-03-19T04:02:47.274Z,32.83
2018-03-19T04:05:15.446Z,28.30
2018-03-19T04:07:43.514Z,41.23
2018-03-19T04:10:11.595Z,36.67
2018-03-19T04:12:39.679Z,28.23
2018-03-19T04:15:07.742Z,27.87
2018-03-19T04:17:35.827Z,30.60
2018-03-19T04:20:03.906Z,35.00
2018-03-19T04:22:31.982Z,26.70
2018-03-19T04:25:00.070Z,23.55
2018-03-19T04:27:28.142Z,31.47
2018-03-19T04:29:57.362Z,29.70
2018-03-19T04:32:25.421Z,34.37
2018-03-19T04:34:53.491Z,29.13
2018-03-19T04:37:21.670Z,27.08
2018-03-19T04:39:49.726Z,31.33
2018-03-19T04:42:17.882Z,26.47
2018-03-19T04:44:45.938Z,34.53
2018-03-19T04:47:14.881Z,31.10
2018-03-19T04:49:42.947Z,32.10
2018-03-19T04:52:11.282Z,34.60
2018-03-19T04:54:40.150Z,25.67
2018-03-19T04:57:08.326Z,28.53
2018-03-19T04:59:36.402Z,30.67
2018-03-19T05:02:04.466Z,32.80
2018-03-19T05:04:32.614Z,37.47
2018-03-19T05:07:00.666Z,30.73
2018-03-19T05:09:29.505Z,27.83
2018-03-19T05:11:58.714Z,31.08
2018-03-19T05:14:27.925Z,27.90
2018-03-19T05:16:55.994Z,23.77
2018-03-19T05:19:24.087Z,32.40
2018-03-19T05:21:53.141Z,29.13
2018-03-19T05:24:21.197Z,31.20
2018-03-19T05:26:50.146Z,22.47
2018-03-19T05:29:18.219Z,39.83
2018-03-19T05:31:46.299Z,30.80
2018-03-19T05:34:14.782Z,31.33
2018-03-19T05:36:42.861Z,28.97
2018-03-19T05:39:11.050Z,30.30
2018-03-19T05:41:39.143Z,35.63
2018-03-19T05:44:07.209Z,27.37
2018-03-19T05:46:36.206Z,34.58
2018-03-19T05:49:05.060Z,37.03
2018-03-19T05:51:33.127Z,31.55
2018-03-19T05:54:01.237Z,37.28
2018-03-19T05:56:29.318Z,36.07
2018-03-19T05:58:58.621Z,33.03
2018-03-19T06:01:26.763Z,24.97
2018-03-19T06:03:54.842Z,24.97
2018-03-19T06:06:22.910Z,30.27
2018-03-19T06:08:50.995Z,32.20
2018-03-19T06:11:19.070Z,29.00
2018-03-19T06:13:47.159Z,32.47
2018-03-19T06:16:15.222Z,34.47
2018-03-19T06:18:43.298Z,38.40
2018-03-19T06:21:11.357Z,25.08
2018-03-19T06:23:40.222Z,35.23
2018-03-19T06:26:09.054Z,55.30
2018-03-19T06:28:37.259Z,28.33
2018-03-19T06:31:05.356Z,33.77
2018-03-19T06:33:33.469Z,30.60
2018-03-19T06:36:02.344Z,31.90
2018-03-19T06:38:30.410Z,33.93
2018-03-19T06:40:59.700Z,35.13
2018-03-19T06:43:29.664Z,32.70
2018-03-19T06:45:59.617Z,35.30
2018-03-19T06:48:28.813Z,40.93
2018-03-19T06:50:56.920Z,39.83
2018-03-19T06:53:25.098Z,39.47
2018-03-19T06:55:53.288Z,34.60
2018-03-19T06:58:21.365Z,49.47
2018-03-19T07:00:49.433Z,32.07
2018-03-19T07:03:17.520Z,30.17
2018-03-19T07:05:45.575Z,39.20
2018-03-19T07:08:13.646Z,34.17
2018-03-19T07:10:41.737Z,32.60
2018-03-19T07:13:09.912Z,38.67
2018-03-19T07:15:37.986Z,50.77
2018-03-19T07:18:06.059Z,35.73
2018-03-19T07:20:34.178Z,43.40
2018-03-19T07:23:03.033Z,29.05
2018-03-19T07:25:31.156Z,39.67
2018-03-19T07:28:00.112Z,38.42
2018-03-19T07:30:29.294Z,36.78
2018-03-19T07:32:57.386Z,35.90
2018-03-19T07:35:25.454Z,35.90
2018-03-19T07:37:53.559Z,32.73
2018-03-19T07:40:21.721Z,42.10
2018-03-19T07:42:49.787Z,30.17
2018-03-19T07:45:18.510Z,31.83
2018-03-19T07:47:46.683Z,41.83
2018-03-19T07:50:14.845Z,43.40
2018-03-19T07:52:42.927Z,31.33
2018-03-19T07:55:10.999Z,41.90
2018-03-19T07:57:39.073Z,38.70
2018-03-19T08:00:07.148Z,31.33
2018-03-19T08:02:35.206Z,29.90
2018-03-19T08:05:03.275Z,34.75
2018-03-19T08:07:31.352Z,29.47
2018-03-19T08:10:00.653Z,24.85
2018-03-19T08:12:30.470Z,36.08
2018-03-19T08:15:00.286Z,40.23
2018-03-19T08:17:28.396Z,24.67
2018-03-19T08:19:56.475Z,34.63
2018-03-19T08:22:24.654Z,31.77
2018-03-19T08:24:52.731Z,39.88
2018-03-19T08:27:20.903Z,31.77
2018-03-19T08:29:48.986Z,31.77
2018-03-19T08:32:17.051Z,36.93
2018-03-19T08:34:45.120Z,55.20
2018-03-19T08:37:13.210Z,41.90
2018-03-19T08:39:41.325Z,47.90
2018-03-19T08:42:09.469Z,61.03
2018-03-19T08:44:37.639Z,57.10
2018-03-19T08:47:05.717Z,42.03
2018-03-19T08:49:33.890Z,44.20
2018-03-19T08:52:01.954Z,32.97
2018-03-19T08:54:30.857Z,42.20
2018-03-19T08:57:00.072Z,34.13
2018-03-19T08:59:28.246Z,33.10
2018-03-19T09:01:56.322Z,38.07
2018-03-19T09:04:24.402Z,44.33
2018-03-19T09:06:52.486Z,40.53
2018-03-19T09:09:20.802Z,49.97
2018-03-19T09:11:48.941Z,40.43
2018-03-19T09:14:17.162Z,44.85
2018-03-19T09:16:46.050Z,34.80
2018-03-19T09:19:14.906Z,45.53
2018-03-19T09:21:43.036Z,37.20
2018-03-19T09:24:11.160Z,40.03
2018-03-19T09:26:39.228Z,33.10
2018-03-19T09:29:07.470Z,41.30
2018-03-19T09:31:35.720Z,31.98
2018-03-19T09:34:03.976Z,39.65
2018-03-19T09:36:32.043Z,38.20
2018-03-19T09:39:01.610Z,39.06
2018-03-19T09:41:30.772Z,42.66
2018-03-19T09:44:00.784Z,40.78
2018-03-19T09:46:28.848Z,45.20
2018-03-19T09:48:56.941Z,33.42
2018-03-19T09:51:25.255Z,39.30
2018-03-19T09:53:54.110Z,39.27
2018-03-19T09:56:22.244Z,41.00
2018-03-19T09:58:50.371Z,43.47
2018-03-19T10:01:18.550Z,39.33
2018-03-19T10:03:46.743Z,37.27
2018-03-19T10:06:14.842Z,34.72
2018-03-19T10:08:43.686Z,37.07
2018-03-19T10:11:12.319Z,43.40
2018-03-19T10:13:40.467Z,37.47
2018-03-19T10:16:08.876Z,27.50
2018-03-19T10:18:38.486Z,31.90
2018-03-19T10:21:06.562Z,49.30
2018-03-19T10:23:34.763Z,37.17
2018-03-19T10:26:03.674Z,51.23
2018-03-19T10:28:31.783Z,43.70
2018-03-19T10:30:59.946Z,44.87
2018-03-19T10:33:28.026Z,46.53
2018-03-19T10:35:57.126Z,40.00
2018-03-19T10:38:25.261Z,46.93
2018-03-19T10:40:54.110Z,43.70
2018-03-19T10:43:22.196Z,48.60
2018-03-19T10:45:50.687Z,47.27
2018-03-19T10:48:18.729Z,41.10
2018-03-19T10:50:46.955Z,43.67
2018-03-19T10:53:15.248Z,38.03
2018-03-19T10:55:44.738Z,51.47
2018-03-19T10:58:13.610Z,40.83
2018-03-19T11:00:41.682Z,52.40
2018-03-19T11:03:09.740Z,48.10
2018-03-19T11:05:43.384Z,51.57
2018-03-19T11:08:11.922Z,44.15
2018-03-19T11:10:40.001Z,46.23
2018-03-19T11:13:08.053Z,37.17
2018-03-19T11:15:37.006Z,48.10
2018-03-19T11:18:05.090Z,45.15
2018-03-19T11:20:33.334Z,40.50
2018-03-19T11:23:02.001Z,54.92
2018-03-19T11:25:30.125Z,47.50
2018-03-19T11:27:58.190Z,45.80
2018-03-19T11:30:26.261Z,56.40
2018-03-19T11:32:54.355Z,40.63
2018-03-19T11:35:22.606Z,43.30
2018-03-19T11:37:50.665Z,45.87
2018-03-19T11:40:19.510Z,44.33
2018-03-19T11:42:47.570Z,54.03
2018-03-19T11:45:15.651Z,55.53
2018-03-19T11:47:44.014Z,39.40
2018-03-19T11:50:12.122Z,41.07
2018-03-19T11:52:40.198Z,51.10
2018-03-19T11:55:08.258Z,64.60
2018-03-19T11:57:36.322Z,41.80
2018-03-19T12:00:04.493Z,53.67
2018-03-19T12:02:32.537Z,48.90
2018-03-19T12:05:02.502Z,41.20
2018-03-19T12:07:30.598Z,42.55
2018-03-19T12:09:58.683Z,54.40
2018-03-19T12:12:26.859Z,63.43
2018-03-19T12:14:55.038Z,52.33
2018-03-19T12:17:23.156Z,48.83
2018-03-19T12:19:52.414Z,55.40
2018-03-19T12:22:20.486Z,65.43
2018-03-19T12:24:48.555Z,48.03
2018-03-19T12:27:16.619Z,45.45
2018-03-19T12:29:44.759Z,48.65
2018-03-19T12:32:13.606Z,44.73
2018-03-19T12:34:41.678Z,47.83
2018-03-19T12:37:09.756Z,42.43
2018-03-19T12:39:37.859Z,60.33
2018-03-19T12:42:06.029Z,43.90
2018-03-19T12:44:34.098Z,50.57
2018-03-19T12:47:03.791Z,48.56
2018-03-19T12:49:33.012Z,43.33
2018-03-19T12:52:01.094Z,63.53
2018-03-19T12:54:29.182Z,51.23
2018-03-19T12:56:57.266Z,54.88
2018-03-19T12:59:25.338Z,45.60
2018-03-19T13:01:54.186Z,47.30
2018-03-19T13:04:22.257Z,51.83
2018-03-19T13:06:50.333Z,42.70
2018-03-19T13:09:18.448Z,42.35
2018-03-19T13:11:46.522Z,49.43
2018-03-19T13:14:14.606Z,41.50
2018-03-19T13:16:42.771Z,47.03
2018-03-19T13:19:10.830Z,34.77
2018-03-19T13:21:38.911Z,41.03
2018-03-19T13:24:06.982Z,56.60
2018-03-19T13:26:35.077Z,39.27
2018-03-19T13:29:03.387Z,45.92
2018-03-19T13:31:31.461Z,46.23
2018-03-19T13:33:59.621Z,60.13
2018-03-19T13:36:27.711Z,52.07
2018-03-19T13:38:57.288Z,42.07
2018-03-19T13:41:25.387Z,50.97
2018-03-19T13:43:53.464Z,45.67
2018-03-19T13:46:21.589Z,41.78
2018-03-19T13:48:49.606Z,41.05
2018-03-19T13:51:17.691Z,63.58
2018-03-19T13:53:45.870Z,43.20
2018-03-19T13:56:13.962Z,51.10
2018-03-19T13:58:42.829Z,45.72
2018-03-19T14:01:10.899Z,43.87
2018-03-19T14:03:38.954Z,51.13
2018-03-19T14:06:07.034Z,45.78
2018-03-19T14:08:35.129Z,44.77
2018-03-19T14:11:03.938Z,50.85
2018-03-19T14:13:32.001Z,50.87
2018-03-19T14:16:00.165Z,54.90
2018-03-19T14:18:28.217Z,44.10
2018-03-19T14:20:56.314Z,53.97
2018-03-19T14:23:24.589Z,45.77
2018-03-19T14:25:52.928Z,48.43
2018-03-19T14:28:21.083Z,54.20
2018-03-19T14:30:49.179Z,62.10
2018-03-19T14:33:17.244Z,59.83
2018-03-19T14:35:45.439Z,51.77
2018-03-19T14:38:14.395Z,52.03
2018-03-19T14:40:42.534Z,55.07
2018-03-19T14:43:11.410Z,40.83
2018-03-19T14:45:40.311Z,47.00
2018-03-19T14:48:10.048Z,61.07
2018-03-19T14:50:38.215Z,54.23
2018-03-19T14:53:06.300Z,53.47
2018-03-19T14:55:34.465Z,52.53
2018-03-19T14:58:02.590Z,55.25
2018-03-19T15:00:30.651Z,44.30
2018-03-19T15:02:58.730Z,50.70
2018-03-19T15:05:26.900Z,44.20
2018-03-19T15:07:55.013Z,52.13
2018-03-19T15:10:23.208Z,67.80
2018-03-19T15:12:52.525Z,58.50
2018-03-19T15:15:20.674Z,58.77
2018-03-19T15:17:48.755Z,48.87
2018-03-19T15:20:16.927Z,46.87
2018-03-19T15:22:45.015Z,46.97
2018-03-19T15:25:13.099Z,47.03
2018-03-19T15:27:41.262Z,49.57
2018-03-19T15:30:09.395Z,58.30
2018-03-19T15:32:37.514Z,52.50
2018-03-19T15:35:05.602Z,45.80
2018-03-19T15:37:34.838Z,53.33
2018-03-19T15:40:04.912Z,48.13
2018-03-19T15:42:33.094Z,44.80
2018-03-19T15:45:01.267Z,59.47
2018-03-19T15:47:29.331Z,53.80
2018-03-19T15:49:57.433Z,43.70
2018-03-19T15:52:25.571Z,51.13
2018-03-19T15:54:53.640Z,48.07
2018-03-19T15:57:21.762Z,45.95
2018-03-19T15:59:49.842Z,47.50
2018-03-19T16:02:17.914Z,47.63
2018-03-19T16:04:46.033Z,50.33
2018-03-19T16:07:14.880Z,45.97
2018-03-19T16:09:43.117Z,60.43
2018-03-19T16:12:11.242Z,57.28
2018-03-19T16:14:39.317Z,54.78
2018-03-19T16:17:07.468Z,55.45
2018-03-19T16:19:35.535Z,54.43
2018-03-19T16:22:03.649Z,48.53
2018-03-19T16:24:31.710Z,50.40
2018-03-19T16:26:59.963Z,52.25
2018-03-19T16:29:28.382Z,53.03
2018-03-19T16:31:56.446Z,53.38
2018-03-19T16:34:24.514Z,52.75
2018-03-19T16:36:52.675Z,43.60
2018-03-19T16:39:20.731Z,55.73
2018-03-19T16:41:49.699Z,61.42
2018-03-19T16:44:17.937Z,61.13
2018-03-19T16:46:46.051Z,55.50
2018-03-19T16:49:14.217Z,54.67
2018-03-19T16:51:42.609Z,41.70
2018-03-19T16:54:10.677Z,56.54
2018-03-19T16:56:38.746Z,59.63
2018-03-19T16:59:06.842Z,58.75
2018-03-19T17:01:36.613Z,67.05
2018-03-19T17:04:04.773Z,65.13
2018-03-19T17:06:33.788Z,53.53
2018-03-19T17:09:01.886Z,52.65
2018-03-19T17:11:29.983Z,47.33
2018-03-19T17:13:58.229Z,51.10
2018-03-19T17:16:26.288Z,51.70
2018-03-19T17:18:55.165Z,50.73
2018-03-19T17:21:24.063Z,43.20
2018-03-19T17:23:53.114Z,51.63
2018-03-19T17:26:21.194Z,56.55
2018-03-19T17:28:49.347Z,53.03
2018-03-19T17:31:17.537Z,48.37
2018-03-19T17:33:45.638Z,67.82
2018-03-19T17:36:13.724Z,60.75
2018-03-19T17:38:41.782Z,55.97
2018-03-19T17:41:09.860Z,61.80
2018-03-19T17:43:38.058Z,57.87
2018-03-19T17:46:07.117Z,52.45
2018-03-19T17:48:37.081Z,52.77
2018-03-19T17:51:07.353Z,59.80
2018-03-19T17:53:36.497Z,52.20
2018-03-19T17:56:04.637Z,61.88
2018-03-19T17:58:32.717Z,60.80
2018-03-19T18:01:00.822Z,61.90
2018-03-19T18:03:28.906Z,52.60
2018-03-19T18:05:57.024Z,67.32
2018-03-19T18:08:25.121Z,56.70
2018-03-19T18:10:53.194Z,69.50
2018-03-19T18:13:21.363Z,55.25
2018-03-19T18:15:50.194Z,65.68
2018-03-19T18:18:18.370Z,84.60
2018-03-19T18:20:46.519Z,58.43
2018-03-19T18:23:14.587Z,59.05
2018-03-19T18:25:42.767Z,57.70
2018-03-19T18:28:11.624Z,59.70
2018-03-19T18:30:40.443Z,62.40
2018-03-19T18:33:09.278Z,76.17
2018-03-19T18:35:37.491Z,70.93
2018-03-19T18:38:07.475Z,75.30
2018-03-19T18:40:35.662Z,61.53
2018-03-19T18:43:03.767Z,66.20
2018-03-19T18:45:31.921Z,67.57
2018-03-19T18:48:00.099Z,66.80
2018-03-19T18:50:28.212Z,62.40
2018-03-19T18:52:56.351Z,76.20
2018-03-19T18:55:24.538Z,55.50
2018-03-19T18:57:52.750Z,66.27
2018-03-19T19:00:20.957Z,59.03
2018-03-19T19:02:49.044Z,56.53
2018-03-19T19:05:17.158Z,55.97
2018-03-19T19:07:45.571Z,62.03
2018-03-19T19:10:14.458Z,58.37
2018-03-19T19:12:42.518Z,63.27
2018-03-19T19:15:10.682Z,64.87
2018-03-19T19:17:39.418Z,47.00
2018-03-19T19:20:07.700Z,54.35
2018-03-19T19:22:36.601Z,63.00
2018-03-19T19:25:04.768Z,63.17
2018-03-19T19:27:33.605Z,54.13
2018-03-19T19:30:01.694Z,55.80
2018-03-19T19:32:29.788Z,55.35
2018-03-19T19:34:57.860Z,62.53
2018-03-19T19:37:26.018Z,75.35
2018-03-19T19:39:54.081Z,65.80
2018-03-19T19:42:22.246Z,62.50
2018-03-19T19:44:50.360Z,67.70
2018-03-19T19:47:18.426Z,52.35
2018-03-19T19:49:46.538Z,70.43
2018-03-19T19:52:14.721Z,60.88
2018-03-19T19:54:42.853Z,60.93
2018-03-19T19:57:11.022Z,44.47
2018-03-19T19:59:39.329Z,51.80
2018-03-19T20:02:08.325Z,55.40
2018-03-19T20:04:36.424Z,58.77
2018-03-19T20:07:04.515Z,60.30
2018-03-19T20:09:33.377Z,58.60
2018-03-19T20:12:01.454Z,70.28
2018-03-19T20:14:29.531Z,59.57
2018-03-19T20:16:57.593Z,59.88
2018-03-19T20:19:25.707Z,62.43
2018-03-19T20:21:53.854Z,73.03
2018-03-19T20:24:21.927Z,54.07
2018-03-19T20:26:50.079Z,79.77
2018-03-19T20:29:18.253Z,68.97
2018-03-19T20:31:46.439Z,63.80
2018-03-19T20:34:14.510Z,66.10
2018-03-19T20:36:42.710Z,56.00
2018-03-19T20:39:10.798Z,54.33
2018-03-19T20:41:38.859Z,64.47
2018-03-19T20:44:07.081Z,56.50
2018-03-19T20:46:35.231Z,75.10
2018-03-19T20:49:03.375Z,96.70
2018-03-19T20:51:32.276Z,56.73
2018-03-19T20:54:00.386Z,47.57
2018-03-19T20:56:28.557Z,66.37
2018-03-19T20:58:56.737Z,68.13
2018-03-19T21:01:24.959Z,59.77
2018-03-19T21:03:53.941Z,69.60
2018-03-19T21:06:22.099Z,64.03
2018-03-19T21:08:50.232Z,54.40
2018-03-19T21:11:18.352Z,67.67
2018-03-19T21:13:46.605Z,60.10
2018-03-19T21:16:14.734Z,60.15
2018-03-19T21:18:42.935Z,60.63
2018-03-19T21:21:11.809Z,58.97
2018-03-19T21:23:40.817Z,61.50
2018-03-19T21:26:10.170Z,65.65
2018-03-19T21:28:39.700Z,65.17
2018-03-19T21:31:07.966Z,69.80
2018-03-19T21:33:36.093Z,70.87
2018-03-19T21:36:04.986Z,68.25
2018-03-19T21:38:33.830Z,58.90
2018-03-19T21:41:01.926Z,58.08
2018-03-19T21:43:30.051Z,63.13
2018-03-19T21:45:58.878Z,59.40
2018-03-19T21:48:27.309Z,50.03
2018-03-19T21:50:56.173Z,52.53
2018-03-19T21:53:24.332Z,59.40
2018-03-19T21:55:52.464Z,47.60
2018-03-19T21:58:21.316Z,53.33
2018-03-19T22:00:49.374Z,55.43
2018-03-19T22:03:17.794Z,47.08
2018-03-19T22:05:47.545Z,53.50
2018-03-19T22:08:15.678Z,58.08
2018-03-19T22:10:46.072Z,58.08
2018-03-19T22:13:14.965Z,50.10
2018-03-19T22:15:43.201Z,46.97
2018-03-19T22:18:11.375Z,47.97
2018-03-19T22:20:40.826Z,63.22
2018-03-19T22:23:10.107Z,54.35
2018-03-19T22:25:38.438Z,62.63
2018-03-19T22:28:06.559Z,62.22
2018-03-19T22:30:35.475Z,53.27
2018-03-19T22:33:04.463Z,62.07
2018-03-19T22:35:32.683Z,62.17
2018-03-19T22:38:00.874Z,67.70
2018-03-19T22:40:28.976Z,72.67
2018-03-19T22:42:57.194Z,68.60
2018-03-19T22:45:25.322Z,79.77
2018-03-19T22:47:53.470Z,55.97
2018-03-19T22:50:21.702Z,60.97
2018-03-19T22:52:50.232Z,50.80
2018-03-19T22:55:18.526Z,49.08
2018-03-19T22:57:46.904Z,54.33
2018-03-19T23:00:15.074Z,51.20
2018-03-19T23:02:43.445Z,49.50
2018-03-19T23:05:26.462Z,47.97
2018-03-19T23:07:54.642Z,44.72
2018-03-19T23:10:22.727Z,50.37
2018-03-19T23:12:51.150Z,45.37
2018-03-19T23:15:19.988Z,50.10
2018-03-19T23:17:48.161Z,49.17
2018-03-19T23:20:17.061Z,49.72
2018-03-19T23:22:45.183Z,52.17
2018-03-19T23:25:13.378Z,39.77
2018-03-19T23:27:43.072Z,46.40
2018-03-19T23:30:11.158Z,41.95
2018-03-19T23:32:39.563Z,49.67
2018-03-19T23:35:08.546Z,47.83
2018-03-19T23:37:36.852Z,45.67
2018-03-19T23:40:06.459Z,45.97
2018-03-19T23:42:35.314Z,51.13
2018-03-19T23:45:03.432Z,41.83
2018-03-19T23:47:31.623Z,44.17
2018-03-19T23:50:00.558Z,42.23
2018-03-19T23:52:28.756Z,54.97
2018-03-19T23:54:56.861Z,41.83
2018-03-19T23:57:25.751Z,48.25
2018-03-19T23:59:54.057Z,48.60
